Time;durP1;ratioP1;P1;durP2;ratioP2;P2;SDS_P1;SDS_P2;PMS_P1;PMS_P2;Temp;Humidity;BMP_temperature;BMP_pressure;BME280_temperature;BME280_humidity;BME280_pressure;Samples;Min_cycle;Max_cycle;Signal;HPM_P1;HPM_P2
2023/04/08 00:01:31;;;;;;;6.78;5.30;;;;;;;4.84;100.00;98697.66;15282839;19;20487;-48
2023/04/08 00:06:56;;;;;;;6.00;5.40;;;;;;;4.82;100.00;98702.25;15283521;19;20011;-46
2023/04/08 00:12:24;;;;;;;5.43;4.93;;;;;;;4.82;100.00;98696.06;15277528;19;20024;-49
2023/04/08 00:17:50;;;;;;;5.25;4.75;;;;;;;4.84;100.00;98696.78;15283419;19;20007;-47
2023/04/08 00:23:20;;;;;;;5.55;5.05;;;;;;;4.91;100.00;98695.38;15277621;19;20014;-49
2023/04/08 00:28:48;;;;;;;4.50;4.10;;;;;;;4.93;100.00;98691.59;15278319;19;20010;-44
2023/04/08 00:34:12;;;;;;;5.00;4.50;;;;;;;4.89;100.00;98705.31;15276846;19;20025;-46
2023/04/08 00:39:37;;;;;;;5.00;4.60;;;;;;;4.84;100.00;98710.13;15278164;19;20371;-49
2023/04/08 00:45:04;;;;;;;4.38;4.07;;;;;;;4.82;100.00;98709.44;15276257;19;20019;-46
2023/04/08 00:50:30;;;;;;;4.70;4.30;;;;;;;4.75;100.00;98719.72;15278063;19;20271;-43
2023/04/08 00:55:54;;;;;;;4.40;4.10;;;;;;;4.72;100.00;98711.94;15278106;19;20021;-43
2023/04/08 01:01:31;;;;;;;3.63;3.40;;;;;;;4.71;100.00;98705.72;15269768;19;20733;-44
2023/04/08 01:07:05;;;;;;;3.47;3.28;;;;;;;4.64;100.00;98712.50;15279339;19;20022;-43
2023/04/08 01:12:34;;;;;;;3.22;3.03;;;;;;;4.66;100.00;98723.06;15276246;19;20022;-43
2023/04/08 01:18:02;;;;;;;2.65;2.45;;;;;;;4.67;100.00;98724.75;15275957;19;20370;-48
2023/04/08 01:23:33;;;;;;;2.45;2.30;;;;;;;4.63;100.00;98734.81;15245265;19;20014;-46
2023/04/08 01:29:03;;;;;;;2.00;1.90;;;;;;;4.47;100.00;98729.78;15278495;19;20021;-47
2023/04/08 01:34:32;;;;;;;2.30;2.10;;;;;;;4.46;100.00;98728.97;15263215;19;20802;-45
2023/04/08 01:39:57;;;;;;;2.00;1.90;;;;;;;4.49;100.00;98727.88;15275862;19;20042;-47
2023/04/08 01:45:25;;;;;;;2.53;2.33;;;;;;;4.49;100.00;98733.22;15272501;19;20086;-47
2023/04/08 01:50:50;;;;;;;2.10;2.00;;;;;;;4.36;100.00;98738.59;15274096;19;20010;-46
2023/04/08 01:56:20;;;;;;;2.40;2.20;;;;;;;4.40;100.00;98739.25;15272250;19;20378;-44
2023/04/08 02:01:49;;;;;;;2.22;2.13;;;;;;;4.38;100.00;98742.00;15271940;19;20021;-48
2023/04/08 02:07:15;;;;;;;2.50;2.30;;;;;;;4.37;100.00;98750.97;15267407;19;20014;-45
2023/04/08 02:12:40;;;;;;;1.98;1.88;;;;;;;4.41;100.00;98746.28;15270127;19;20019;-47
2023/04/08 02:18:14;;;;;;;2.20;2.10;;;;;;;4.40;100.00;98741.91;15275423;19;20359;-46
2023/04/08 02:23:48;;;;;;;2.08;1.98;;;;;;;4.36;100.00;98753.75;15267011;19;20022;-43
2023/04/08 02:29:15;;;;;;;2.20;2.10;;;;;;;4.32;100.00;98753.97;15274253;19;20483;-54
2023/04/08 02:34:44;;;;;;;2.30;2.20;;;;;;;4.35;100.00;98754.72;15269837;19;20023;-45
2023/04/08 02:40:27;;;;;;;2.60;2.40;;;;;;;4.26;100.00;98758.91;15267900;19;20045;-47
2023/04/08 02:45:53;;;;;;;2.72;2.53;;;;;;;4.28;100.00;98779.19;15269990;19;20054;-46
2023/04/08 02:51:22;;;;;;;3.10;2.83;;;;;;;4.23;100.00;98778.66;15271765;19;20027;-46
2023/04/08 02:56:47;;;;;;;3.28;3.05;;;;;;;4.27;100.00;98776.63;15270071;19;20018;-45
2023/04/08 03:02:11;;;;;;;3.60;3.30;;;;;;;4.26;100.00;98775.78;15270914;19;20042;-46
2023/04/08 03:07:39;;;;;;;3.75;3.45;;;;;;;4.25;100.00;98765.22;15290135;19;20487;-43
2023/04/08 03:13:03;;;;;;;3.60;3.30;;;;;;;4.23;100.00;98770.66;15276395;19;20026;-45
2023/04/08 03:18:28;;;;;;;3.40;3.10;;;;;;;4.24;100.00;98772.38;15287728;19;20475;-43
2023/04/08 03:23:55;;;;;;;3.00;2.80;;;;;;;4.08;100.00;98771.78;15280237;19;20026;-43
2023/04/08 03:29:20;;;;;;;3.88;2.85;;;;;;;4.09;100.00;98781.47;15286252;19;20471;-43
2023/04/08 03:34:44;;;;;;;3.60;3.30;;;;;;;4.08;100.00;98788.63;15278691;19;20018;-45
2023/04/08 03:40:12;;;;;;;3.88;3.50;;;;;;;4.06;100.00;98773.72;15285277;19;20705;-43
2023/04/08 03:45:36;;;;;;;5.88;4.18;;;;;;;3.96;100.00;98795.69;15281471;19;20727;-48
2023/04/08 03:51:01;;;;;;;4.60;4.20;;;;;;;3.84;100.00;98797.44;15281461;19;20375;-44
2023/04/08 03:56:28;;;;;;;4.63;4.22;;;;;;;3.80;100.00;98806.59;15285624;19;20354;-48
2023/04/08 04:01:53;;;;;;;5.05;4.50;;;;;;;3.83;100.00;98813.50;15282457;19;20018;-48
2023/04/08 04:07:17;;;;;;;6.60;4.72;;;;;;;3.82;100.00;98822.50;15284879;19;20006;-46
2023/04/08 04:12:46;;;;;;;6.15;5.30;;;;;;;3.77;100.00;98841.44;15278045;19;20014;-47
2023/04/08 04:18:11;;;;;;;6.75;5.25;;;;;;;3.76;100.00;98846.91;15281379;19;20024;-49
2023/04/08 04:23:43;;;;;;;5.60;5.05;;;;;;;3.81;100.00;98860.78;15277691;19;20433;-49
2023/04/08 04:29:10;;;;;;;5.87;5.20;;;;;;;3.80;100.00;98862.56;15283562;19;20014;-47
2023/04/08 04:34:35;;;;;;;6.82;6.13;;;;;;;3.78;100.00;98866.31;15276099;19;20094;-48
2023/04/08 04:39:59;;;;;;;7.47;6.45;;;;;;;3.80;100.00;98875.06;15281568;19;20014;-49
2023/04/08 04:45:27;;;;;;;8.38;6.70;;;;;;;3.75;100.00;98885.16;15271555;19;20011;-47
2023/04/08 04:50:56;;;;;;;7.28;6.43;;;;;;;3.76;100.00;98894.88;15280331;19;20042;-48
2023/04/08 04:56:21;;;;;;;7.35;6.32;;;;;;;3.74;100.00;98891.47;15282112;19;20033;-49
2023/04/08 05:01:49;;;;;;;7.82;6.70;;;;;;;3.79;100.00;98900.00;15272871;19;20015;-51
2023/04/08 05:07:14;;;;;;;6.10;5.20;;;;;;;3.77;100.00;98904.56;15280662;19;20085;-51
2023/04/08 05:12:38;;;;;;;4.68;3.80;;;;;;;3.77;100.00;98905.41;15275287;19;20032;-48
2023/04/08 05:18:06;;;;;;;4.47;3.88;;;;;;;3.80;100.00;98912.38;15269977;19;20018;-49
2023/04/08 05:23:30;;;;;;;3.70;3.40;;;;;;;3.81;100.00;98898.91;15274161;19;20029;-47
2023/04/08 05:28:56;;;;;;;3.33;3.00;;;;;;;3.84;100.00;98897.84;15275490;19;20019;-47
2023/04/08 05:34:24;;;;;;;4.97;3.53;;;;;;;3.89;100.00;98910.84;15268120;19;20020;-51
2023/04/08 05:39:48;;;;;;;3.15;2.85;;;;;;;3.94;100.00;98911.41;15223014;19;20014;-49
2023/04/08 05:45:13;;;;;;;2.78;2.58;;;;;;;3.97;100.00;98914.69;15244661;19;20375;-49
2023/04/08 05:50:40;;;;;;;2.30;2.10;;;;;;;3.93;100.00;98907.91;15240454;19;20010;-49
2023/04/08 05:56:04;;;;;;;2.30;2.00;;;;;;;4.01;100.00;98910.00;15265920;19;20014;-45
2023/04/08 06:01:29;;;;;;;2.20;2.00;;;;;;;4.04;100.00;98923.13;15268418;19;20010;-49
2023/04/08 06:07:01;;;;;;;3.00;2.60;;;;;;;4.03;100.00;98928.56;15267819;19;20018;-49
2023/04/08 06:12:26;;;;;;;3.95;3.10;;;;;;;4.04;100.00;98931.13;15261715;19;20090;-46
2023/04/08 06:17:51;;;;;;;3.65;2.80;;;;;;;4.03;100.00;98934.75;15269235;19;20779;-47
2023/04/08 06:23:25;;;;;;;4.18;3.40;;;;;;;4.09;100.00;98937.00;15254693;19;20023;-51
2023/04/08 06:28:51;;;;;;;4.95;3.60;;;;;;;4.06;100.00;98950.53;15267238;19;20333;-46
2023/04/08 06:34:15;;;;;;;8.20;4.55;;;;;;;4.10;100.00;98962.72;15261357;19;20082;-44
2023/04/08 06:39:43;;;;;;;8.32;5.18;;;;;;;4.10;100.00;98956.50;15264515;19;20021;-46
2023/04/08 06:45:07;;;;;;;9.55;5.03;;;;;;;4.10;100.00;98959.16;15262257;19;20086;-46
2023/04/08 06:50:32;;;;;;;6.68;4.40;;;;;;;4.10;100.00;98969.84;15260485;19;20606;-46
2023/04/08 06:55:59;;;;;;;7.50;4.72;;;;;;;4.10;100.00;98978.72;15255153;19;20018;-45
2023/04/08 07:01:25;;;;;;;8.23;4.90;;;;;;;4.16;100.00;98993.44;15261529;19;20085;-46
2023/04/08 07:06:49;;;;;;;6.43;4.43;;;;;;;4.18;100.00;99001.31;15262853;19;20017;-48
2023/04/08 07:12:16;;;;;;;8.02;5.90;;;;;;;4.13;100.00;99012.31;15259931;19;20028;-47
2023/04/08 07:17:42;;;;;;;8.27;5.88;;;;;;;4.09;100.00;99014.34;15263335;19;20010;-46
2023/04/08 07:23:06;;;;;;;14.43;7.80;;;;;;;4.11;100.00;99011.53;15267669;19;20078;-45
2023/04/08 07:28:37;;;;;;;10.57;7.65;;;;;;;4.18;100.00;99015.47;15260449;19;20011;-49
2023/04/08 07:34:03;;;;;;;10.48;8.02;;;;;;;4.16;100.00;99015.59;15288237;19;20035;-49
2023/04/08 07:39:28;;;;;;;11.38;8.52;;;;;;;4.20;100.00;99024.25;15266141;19;20424;-46
2023/04/08 07:44:55;;;;;;;9.82;7.70;;;;;;;4.24;100.00;99012.41;15256809;19;20014;-48
2023/04/08 07:50:22;;;;;;;10.02;8.48;;;;;;;4.35;100.00;99016.97;15264468;19;20057;-49
2023/04/08 07:55:51;;;;;;;8.50;7.03;;;;;;;4.36;100.00;99023.19;15274366;19;20040;-51
2023/04/08 08:01:29;;;;;;;7.70;6.45;;;;;;;4.45;100.00;99030.53;15268672;19;20021;-49
2023/04/08 08:07:01;;;;;;;6.22;5.63;;;;;;;4.50;100.00;99031.09;15277131;19;20038;-44
2023/04/08 08:12:26;;;;;;;6.83;6.13;;;;;;;4.45;100.00;99036.75;15275556;19;20034;-57
2023/04/08 08:17:55;;;;;;;9.02;7.63;;;;;;;4.52;100.00;99038.97;15273421;19;20021;-49
2023/04/08 08:23:19;;;;;;;10.05;8.23;;;;;;;4.49;100.00;99056.06;15266149;19;20014;-47
2023/04/08 08:28:45;;;;;;;12.18;9.32;;;;;;;4.54;100.00;99055.72;15275019;19;20396;-49
2023/04/08 08:34:12;;;;;;;9.98;8.85;;;;;;;4.57;100.00;99056.38;15262178;19;20017;-49
2023/04/08 08:39:37;;;;;;;11.48;8.88;;;;;;;4.65;100.00;99068.31;15272445;19;20404;-48
2023/04/08 08:45:05;;;;;;;13.68;10.75;;;;;;;4.69;100.00;99067.16;15268490;19;20373;-48
2023/04/08 08:50:33;;;;;;;17.52;11.95;;;;;;;4.76;100.00;99084.44;15271732;19;20483;-44
2023/04/08 08:55:59;;;;;;;42.35;15.15;;;;;;;4.79;100.00;99086.88;15270659;19;20428;-44
2023/04/08 09:01:40;;;;;;;57.72;17.55;;;;;;;4.77;100.00;99092.34;15267269;19;20026;-46
2023/04/08 09:07:13;;;;;;;48.45;19.30;;;;;;;4.69;100.00;99113.41;15263023;19;20025;-45
2023/04/08 09:12:39;;;;;;;66.93;21.33;;;;;;;4.85;100.00;99128.31;15257195;19;20025;-46
2023/04/08 09:18:03;;;;;;;49.55;18.75;;;;;;;4.92;100.00;99129.63;15261624;19;20018;-46
2023/04/08 09:23:31;;;;;;;36.05;18.92;;;;;;;4.92;100.00;99142.97;15258521;19;20014;-45
2023/04/08 09:29:03;;;;;;;25.92;18.75;;;;;;;5.03;100.00;99145.72;15269821;19;20012;-44
2023/04/08 09:34:42;;;;;;;19.95;16.15;;;;;;;5.12;100.00;99156.72;15264353;19;20025;-49
2023/04/08 09:40:11;;;;;;;19.65;15.63;;;;;;;5.20;100.00;99149.88;15264118;19;20049;-47
2023/04/08 09:45:37;;;;;;;14.75;12.18;;;;;;;5.29;100.00;99158.19;15268611;19;20544;-46
2023/04/08 09:51:03;;;;;;;13.63;11.80;;;;;;;5.38;100.00;99133.47;15268595;19;20024;-47
2023/04/08 09:56:31;;;;;;;13.50;12.10;;;;;;;5.61;100.00;99118.47;15265038;19;20514;-53
2023/04/08 10:01:58;;;;;;;13.68;12.23;;;;;;;5.61;100.00;99098.88;15265470;19;20011;-43
2023/04/08 10:07:23;;;;;;;15.23;13.07;;;;;;;5.70;100.00;99093.72;15278686;19;20070;-48
2023/04/08 10:12:51;;;;;;;15.55;13.88;;;;;;;5.64;100.00;99074.59;15263491;19;20802;-51
2023/04/08 10:18:41;;;;;;;17.02;14.07;;;;;;;5.75;100.00;99077.31;15269024;19;20031;-48
2023/04/08 10:24:11;;;;;;;13.32;11.50;;;;;;;5.78;100.00;99078.91;15265834;19;20019;-48
2023/04/08 10:29:42;;;;;;;13.85;12.07;;;;;;;5.74;100.00;99075.63;15267980;19;20021;-48
2023/04/08 10:35:07;;;;;;;16.40;12.70;;;;;;;5.82;100.00;99091.09;15261614;19;20024;-49
2023/04/08 10:40:31;;;;;;;14.48;11.85;;;;;;;5.70;100.00;99077.69;15262772;19;20041;-45
2023/04/08 10:45:58;;;;;;;13.93;11.35;;;;;;;5.69;100.00;99077.81;15266800;19;20028;-50
2023/04/08 10:51:24;;;;;;;13.55;10.77;;;;;;;5.87;100.00;99078.25;15264536;19;20072;-46
2023/04/08 10:56:53;;;;;;;15.32;11.05;;;;;;;6.08;100.00;99086.47;15263335;19;20503;-47
2023/04/08 11:02:24;;;;;;;14.80;11.80;;;;;;;6.14;100.00;99074.47;15261874;19;21221;-55
2023/04/08 11:07:49;;;;;;;14.32;10.95;;;;;;;6.06;100.00;99061.66;15266216;19;20472;-47
2023/04/08 11:13:16;;;;;;;12.82;10.93;;;;;;;6.11;100.00;99053.31;15257054;19;20021;-45
2023/04/08 11:18:44;;;;;;;12.77;11.48;;;;;;;6.24;100.00;99055.91;15267202;19;20011;-50
2023/04/08 11:24:10;;;;;;;12.82;11.43;;;;;;;6.41;100.00;99051.91;15264344;19;20468;-47
2023/04/08 11:29:37;;;;;;;12.45;11.18;;;;;;;6.52;100.00;99051.09;15278542;19;20483;-48
2023/04/08 11:35:04;;;;;;;11.95;10.68;;;;;;;6.75;100.00;99046.59;15273278;19;20490;-48
2023/04/08 11:40:29;;;;;;;11.70;10.60;;;;;;;6.75;100.00;99035.88;15277226;19;20033;-46
2023/04/08 11:45:53;;;;;;;12.07;10.75;;;;;;;6.77;100.00;99034.78;15274004;19;20455;-45
2023/04/08 11:51:20;;;;;;;14.13;12.63;;;;;;;6.65;100.00;99024.19;15276873;19;20024;-49
2023/04/08 11:56:54;;;;;;;15.75;13.90;;;;;;;6.67;100.00;99031.13;15274054;19;20021;-47
2023/04/08 12:02:20;;;;;;;16.50;14.60;;;;;;;6.48;100.00;99043.28;15274598;19;20348;-47
2023/04/08 12:07:47;;;;;;;17.08;15.27;;;;;;;6.56;100.00;99039.16;15275148;19;20022;-45
2023/04/08 12:13:12;;;;;;;16.63;14.93;;;;;;;6.59;100.00;99042.44;15274654;19;20025;-49
2023/04/08 12:18:37;;;;;;;17.88;16.02;;;;;;;6.68;100.00;99048.06;15277105;19;20417;-49
2023/04/08 12:24:11;;;;;;;19.02;16.52;;;;;;;6.76;100.00;99051.81;15267771;19;20485;-48
2023/04/08 12:29:36;;;;;;;18.25;16.25;;;;;;;6.87;100.00;99045.63;15265822;19;20014;-49
2023/04/08 12:35:00;;;;;;;18.00;16.08;;;;;;;6.91;100.00;99059.59;15268116;19;20014;-45
2023/04/08 12:40:27;;;;;;;16.60;14.98;;;;;;;6.92;100.00;99050.59;15270063;19;20015;-50
2023/04/08 12:45:53;;;;;;;17.67;14.10;;;;;;;6.92;100.00;99043.44;15270559;19;20013;-51
2023/04/08 12:51:19;;;;;;;17.23;14.98;;;;;;;6.85;100.00;99049.41;15266265;19;20018;-48
2023/04/08 12:56:47;;;;;;;15.77;14.15;;;;;;;6.85;100.00;99057.44;15271492;19;20031;-51
2023/04/08 13:02:13;;;;;;;16.45;14.68;;;;;;;6.98;100.00;99058.16;15270215;19;20006;-46
2023/04/08 13:07:37;;;;;;;16.30;14.60;;;;;;;7.03;100.00;99053.28;15269981;19;20033;-47
2023/04/08 13:13:05;;;;;;;17.45;15.65;;;;;;;6.94;100.00;99057.53;15269709;19;20010;-47
2023/04/08 13:18:30;;;;;;;18.50;16.48;;;;;;;6.97;100.00;99058.25;15264271;19;20013;-45
2023/04/08 13:23:55;;;;;;;18.30;16.40;;;;;;;6.99;100.00;99062.53;15262175;19;20014;-49
2023/04/08 13:29:22;;;;;;;17.58;15.68;;;;;;;7.02;100.00;99058.75;15267356;19;20037;-47
2023/04/08 13:34:47;;;;;;;17.58;15.70;;;;;;;7.07;100.00;99060.09;15262190;19;20046;-48
2023/04/08 13:40:16;;;;;;;16.10;14.25;;;;;;;7.19;100.00;99052.03;15266987;19;20364;-54
2023/04/08 13:45:43;;;;;;;14.15;12.75;;;;;;;7.36;100.00;99045.31;15268468;19;20034;-44
2023/04/08 13:51:08;;;;;;;14.95;13.27;;;;;;;7.57;100.00;99037.34;15267558;19;20617;-46
2023/04/08 13:56:33;;;;;;;15.60;13.95;;;;;;;7.67;100.00;99037.41;15265751;19;20023;-44
2023/04/08 14:02:02;;;;;;;14.23;12.73;;;;;;;7.80;100.00;99039.94;15275163;19;20463;-47
2023/04/08 14:07:30;;;;;;;14.18;12.77;;;;;;;7.76;100.00;99025.06;15270771;19;20412;-50
2023/04/08 14:12:55;;;;;;;13.52;12.13;;;;;;;7.87;100.00;99035.75;15264516;19;20066;-50
2023/04/08 14:18:23;;;;;;;13.10;11.68;;;;;;;7.91;100.00;99039.03;15262460;19;20619;-46
2023/04/08 14:23:48;;;;;;;13.18;11.88;;;;;;;7.93;100.00;99031.69;15261196;19;20030;-46
2023/04/08 14:29:14;;;;;;;13.32;11.85;;;;;;;7.97;100.00;99039.34;15262047;19;20011;-45
2023/04/08 14:34:41;;;;;;;14.18;12.77;;;;;;;7.86;100.00;99047.47;15257838;19;20495;-46
2023/04/08 14:40:07;;;;;;;13.65;12.35;;;;;;;7.92;100.00;99040.72;15260937;19;20762;-52
2023/04/08 14:45:32;;;;;;;13.32;12.02;;;;;;;7.98;100.00;99033.00;15265214;19;20070;-46
2023/04/08 14:51:00;;;;;;;13.07;11.00;;;;;;;7.80;100.00;99026.53;15262531;19;20016;-46
2023/04/08 14:56:24;;;;;;;12.63;11.43;;;;;;;7.94;100.00;99036.91;15263293;19;20015;-45
2023/04/08 15:01:49;;;;;;;12.10;10.90;;;;;;;7.92;100.00;99035.34;15268194;19;20017;-46
2023/04/08 15:07:16;;;;;;;14.35;11.25;;;;;;;7.88;100.00;99029.41;15278730;19;20017;-47
2023/04/08 15:12:41;;;;;;;12.30;10.75;;;;;;;7.85;100.00;99024.28;15272938;19;20772;-45
2023/04/08 15:18:05;;;;;;;12.98;11.40;;;;;;;7.88;100.00;99034.78;15275113;19;20475;-49
2023/04/08 15:23:32;;;;;;;13.15;11.57;;;;;;;7.83;100.00;99036.97;15274434;19;20014;-45
2023/04/08 15:28:58;;;;;;;13.40;12.00;;;;;;;7.75;100.00;99039.47;15277815;19;20021;-46
2023/04/08 15:34:24;;;;;;;13.60;12.05;;;;;;;7.78;100.00;99044.56;15267910;19;20023;-47
2023/04/08 15:39:52;;;;;;;13.90;12.50;;;;;;;7.73;100.00;99042.28;15276740;19;20102;-46
2023/04/08 15:45:17;;;;;;;15.00;13.43;;;;;;;7.74;100.00;99049.34;15272194;19;20011;-50
2023/04/08 15:50:43;;;;;;;13.13;11.82;;;;;;;7.77;100.00;99045.56;15281005;19;20038;-52
2023/04/08 15:56:14;;;;;;;12.93;11.63;;;;;;;7.76;100.00;99055.41;15271754;19;20122;-48
2023/04/08 16:01:39;;;;;;;11.85;10.68;;;;;;;7.68;100.00;99053.38;15273848;19;20014;-46
2023/04/08 16:07:05;;;;;;;13.40;12.00;;;;;;;7.71;100.00;99050.44;15270209;19;20006;-48
2023/04/08 16:12:32;;;;;;;12.60;11.30;;;;;;;7.77;100.00;99051.75;15267941;19;21023;-45
2023/04/08 16:17:58;;;;;;;13.05;11.63;;;;;;;7.75;100.00;99058.22;15267946;19;20041;-44
2023/04/08 16:23:29;;;;;;;12.35;11.05;;;;;;;7.75;100.00;99066.28;15270925;19;20082;-45
2023/04/08 16:28:57;;;;;;;14.35;12.23;;;;;;;7.58;100.00;99073.91;15273193;19;20018;-48
2023/04/08 16:34:22;;;;;;;12.98;11.38;;;;;;;7.65;100.00;99090.31;15269744;19;20017;-47
2023/04/08 16:39:47;;;;;;;13.02;11.35;;;;;;;7.58;100.00;99087.31;15266866;19;20492;-46
2023/04/08 16:45:15;;;;;;;12.70;10.95;;;;;;;7.53;100.00;99092.19;15268819;19;20034;-48
2023/04/08 16:50:41;;;;;;;14.10;11.35;;;;;;;7.50;100.00;99100.47;15271740;19;20023;-47
2023/04/08 16:56:06;;;;;;;13.38;11.27;;;;;;;7.47;100.00;99109.63;15274496;19;20014;-45
2023/04/08 17:01:33;;;;;;;15.30;12.00;;;;;;;7.42;100.00;99114.50;15270283;19;20025;-46
2023/04/08 17:06:58;;;;;;;15.05;12.77;;;;;;;7.41;100.00;99123.50;15272450;19;20010;-47
2023/04/08 17:12:24;;;;;;;16.23;13.13;;;;;;;7.33;100.00;99125.97;15271360;19;20010;-46
2023/04/08 17:17:52;;;;;;;17.58;12.25;;;;;;;7.28;100.00;99134.38;15266145;19;20018;-46
2023/04/08 17:23:17;;;;;;;15.77;13.05;;;;;;;7.30;100.00;99137.81;15265267;19;20015;-44
2023/04/08 17:28:42;;;;;;;15.23;12.98;;;;;;;7.19;100.00;99151.19;15266327;19;20011;-45
2023/04/08 17:34:09;;;;;;;17.17;13.38;;;;;;;7.21;100.00;99154.63;15268680;19;20034;-45
2023/04/08 17:39:39;;;;;;;18.27;13.60;;;;;;;7.29;100.00;99159.38;15264669;19;20081;-46
2023/04/08 17:45:04;;;;;;;17.85;13.43;;;;;;;7.32;100.00;99165.34;15265640;19;20355;-49
2023/04/08 17:50:32;;;;;;;13.15;11.60;;;;;;;7.31;100.00;99160.94;15266727;19;20017;-46
2023/04/08 17:55:57;;;;;;;12.65;11.02;;;;;;;7.32;100.00;99154.63;15262891;19;20011;-46
2023/04/08 18:01:23;;;;;;;12.40;10.80;;;;;;;7.36;100.00;99158.72;15266692;19;20679;-47
2023/04/08 18:06:50;;;;;;;11.80;10.60;;;;;;;7.34;100.00;99173.25;15277968;19;20078;-47
2023/04/08 18:12:15;;;;;;;11.20;10.00;;;;;;;7.33;100.00;99175.09;15257724;19;20034;-46
2023/04/08 18:17:40;;;;;;;11.05;9.95;;;;;;;7.29;100.00;99178.97;15262961;19;20029;-45
2023/04/08 18:23:07;;;;;;;11.43;10.32;;;;;;;7.21;100.00;99194.81;15266435;19;20029;-44
2023/04/08 18:28:32;;;;;;;10.57;9.55;;;;;;;7.11;100.00;99197.34;15264922;19;20021;-47
2023/04/08 18:33:56;;;;;;;10.95;9.90;;;;;;;6.98;100.00;99207.31;15260493;19;20028;-45
2023/04/08 18:39:23;;;;;;;10.13;9.23;;;;;;;6.81;100.00;99205.94;15267353;19;20023;-47
2023/04/08 18:44:48;;;;;;;10.98;9.52;;;;;;;6.73;100.00;99210.06;15232060;19;20017;-44
2023/04/08 18:50:19;;;;;;;9.98;9.07;;;;;;;6.64;100.00;99210.78;15262899;19;20020;-45
2023/04/08 18:55:47;;;;;;;10.10;9.20;;;;;;;6.50;100.00;99225.19;15265480;19;20029;-46
2023/04/08 19:01:15;;;;;;;10.35;9.40;;;;;;;6.37;100.00;99230.63;15264298;19;20019;-45
2023/04/08 19:06:41;;;;;;;9.93;9.02;;;;;;;6.26;100.00;99231.41;15266055;19;20387;-47
2023/04/08 19:12:08;;;;;;;10.35;9.35;;;;;;;6.24;100.00;99229.81;15262749;19;20021;-45
2023/04/08 19:17:33;;;;;;;10.45;9.35;;;;;;;6.24;100.00;99221.78;15256200;19;20050;-47
2023/04/08 19:22:57;;;;;;;9.80;8.88;;;;;;;6.22;100.00;99221.06;15262319;19;20020;-45
2023/04/08 19:28:24;;;;;;;10.13;9.23;;;;;;;6.22;100.00;99213.03;15260946;19;20337;-46
2023/04/08 19:33:49;;;;;;;10.10;9.20;;;;;;;6.16;100.00;99212.53;15262599;19;20025;-47
2023/04/08 19:39:14;;;;;;;10.10;9.20;;;;;;;6.16;100.00;99211.66;15258470;19;20417;-48
2023/04/08 19:44:46;;;;;;;10.43;9.52;;;;;;;6.14;100.00;99219.81;15259778;19;20018;-45
2023/04/08 19:50:13;;;;;;;10.38;9.40;;;;;;;6.16;100.00;99227.72;15273187;19;20767;-45
2023/04/08 19:55:38;;;;;;;9.85;8.95;;;;;;;6.17;100.00;99219.56;15274299;19;20646;-45
2023/04/08 20:01:08;;;;;;;10.52;9.52;;;;;;;6.17;100.00;99224.91;15276358;19;20020;-46
2023/04/08 20:06:33;;;;;;;10.68;9.68;;;;;;;6.20;100.00;99217.63;15277536;19;20025;-46
2023/04/08 20:12:03;;;;;;;10.60;9.60;;;;;;;6.14;100.00;99219.81;15276084;19;20015;-45
2023/04/08 20:17:30;;;;;;;10.18;9.27;;;;;;;6.17;100.00;99224.91;15275708;19;20482;-44
2023/04/08 20:22:56;;;;;;;10.48;9.52;;;;;;;6.16;100.00;99219.69;15267916;19;20021;-46
2023/04/08 20:28:27;;;;;;;10.77;9.77;;;;;;;6.16;100.00;99233.94;15275490;19;20046;-44
2023/04/08 20:33:54;;;;;;;10.17;9.20;;;;;;;6.15;100.00;99226.88;15270200;19;20025;-46
2023/04/08 20:39:22;;;;;;;10.48;9.50;;;;;;;6.17;100.00;99224.91;15270273;19;20021;-44
2023/04/08 20:44:47;;;;;;;10.45;9.45;;;;;;;6.10;100.00;99229.03;15273328;19;20026;-42
2023/04/08 20:50:15;;;;;;;10.68;9.68;;;;;;;6.12;100.00;99231.56;15272633;19;20015;-45
2023/04/08 20:55:40;;;;;;;11.48;10.38;;;;;;;6.11;100.00;99224.53;15269845;19;20021;-44
2023/04/08 21:01:05;;;;;;;10.73;9.73;;;;;;;6.12;100.00;99235.13;15269066;19;20021;-46
2023/04/08 21:06:36;;;;;;;10.55;9.55;;;;;;;6.12;100.00;99219.06;15270406;19;20027;-47
2023/04/08 21:12:00;;;;;;;11.43;10.35;;;;;;;6.14;100.00;99214.47;15271144;19;20018;-45
2023/04/08 21:17:29;;;;;;;11.60;10.50;;;;;;;6.12;100.00;99223.53;15272497;19;20039;-42
2023/04/08 21:22:57;;;;;;;11.32;10.30;;;;;;;6.07;100.00;99239.94;15269148;19;20029;-42
2023/04/08 21:28:29;;;;;;;13.27;11.93;;;;;;;6.01;100.00;99237.72;15268569;19;20017;-44
2023/04/08 21:33:54;;;;;;;13.13;11.87;;;;;;;5.90;100.00;99242.97;15267445;19;20598;-43
2023/04/08 21:39:21;;;;;;;12.38;11.18;;;;;;;5.85;100.00;99244.16;15268462;19;20365;-41
2023/04/08 21:44:47;;;;;;;12.27;11.05;;;;;;;5.78;100.00;99242.88;15266155;19;20031;-43
2023/04/08 21:50:12;;;;;;;12.95;11.65;;;;;;;5.80;100.00;99240.97;15269520;19;20485;-44
2023/04/08 21:55:39;;;;;;;12.65;11.43;;;;;;;5.77;100.00;99245.66;15271101;19;20010;-43
2023/04/08 22:01:05;;;;;;;12.07;10.90;;;;;;;5.81;100.00;99234.66;15260842;19;20094;-45
2023/04/08 22:06:30;;;;;;;11.35;10.25;;;;;;;5.83;100.00;99237.22;15269182;19;20014;-42
2023/04/08 22:11:58;;;;;;;11.80;10.70;;;;;;;5.82;100.00;99225.63;15263576;19;20017;-43
2023/04/08 22:17:23;;;;;;;12.18;10.98;;;;;;;5.82;100.00;99236.34;15269481;19;20013;-44
2023/04/08 22:22:48;;;;;;;12.68;11.48;;;;;;;5.82;100.00;99230.16;15285782;19;20537;-42
2023/04/08 22:28:23;;;;;;;13.52;12.23;;;;;;;5.83;100.00;99222.00;15300305;19;20026;-48
2023/04/08 22:33:49;;;;;;;13.65;12.35;;;;;;;5.84;100.00;99237.09;15261827;19;20035;-43
2023/04/08 22:39:13;;;;;;;13.65;12.25;;;;;;;5.82;100.00;99231.00;15267101;19;20025;-45
2023/04/08 22:44:41;;;;;;;14.55;13.15;;;;;;;5.80;100.00;99230.28;15261544;19;20081;-43
2023/04/08 22:50:06;;;;;;;14.48;13.07;;;;;;;5.81;100.00;99242.69;15269931;19;20105;-44
2023/04/08 22:55:31;;;;;;;14.68;13.18;;;;;;;5.79;100.00;99236.59;15263679;19;20098;-45
2023/04/08 23:00:58;;;;;;;15.40;13.90;;;;;;;5.81;100.00;99244.47;15261311;19;20019;-53
2023/04/08 23:06:23;;;;;;;17.65;15.55;;;;;;;5.79;100.00;99236.59;15262219;19;20025;-45
2023/04/08 23:11:47;;;;;;;18.65;16.70;;;;;;;5.73;100.00;99241.50;15261898;19;20018;-47
2023/04/08 23:17:16;;;;;;;17.13;15.38;;;;;;;5.66;100.00;99243.78;15260975;19;20363;-47
2023/04/08 23:22:44;;;;;;;16.70;14.93;;;;;;;5.60;100.00;99249.53;15274059;19;20018;-47
2023/04/08 23:28:16;;;;;;;21.33;17.52;;;;;;;5.55;100.00;99250.75;15274832;19;20010;-43
2023/04/08 23:33:44;;;;;;;19.33;15.97;;;;;;;5.49;100.00;99244.97;15276547;19;20018;-46
2023/04/08 23:39:08;;;;;;;19.50;17.42;;;;;;;5.51;100.00;99259.94;15271889;19;20781;-47
2023/04/08 23:44:33;;;;;;;16.15;14.55;;;;;;;5.44;100.00;99247.97;15272307;19;20018;-51
2023/04/08 23:50:00;;;;;;;16.60;14.90;;;;;;;5.41;100.00;99245.50;15278362;19;20002;-47
2023/04/08 23:55:25;;;;;;;16.15;14.55;;;;;;;5.40;100.00;99254.47;15272342;19;20380;-47
